createdAt,value
2022-11-08T00:04:44.669Z,7.47
2022-11-08T00:14:46.551Z,7.57
2022-11-08T00:24:47.783Z,7.64
2022-11-08T00:34:49.178Z,7.85
2022-11-08T00:44:50.376Z,8.11
2022-11-08T00:54:51.531Z,8.35
2022-11-08T01:04:52.690Z,8.42
2022-11-08T01:14:54.561Z,8.41
2022-11-08T01:24:55.731Z,8.54
2022-11-08T01:34:57.146Z,8.73
2022-11-08T01:45:01.243Z,8.75
2022-11-08T01:55:05.202Z,8.65
2022-11-08T02:05:26.355Z,8.70
2022-11-08T02:15:27.605Z,8.76
2022-11-08T02:25:28.857Z,8.64
2022-11-08T02:35:30.140Z,8.50
2022-11-08T02:45:32.022Z,8.54
2022-11-08T02:55:34.469Z,8.60
2022-11-08T03:05:35.653Z,8.53
2022-11-08T03:15:37.094Z,8.41
2022-11-08T03:25:38.251Z,8.50
2022-11-08T03:35:39.623Z,8.66
2022-11-08T03:45:40.880Z,8.65
2022-11-08T03:55:42.185Z,8.55
2022-11-08T04:05:43.316Z,8.61
2022-11-08T04:15:46.246Z,8.75
2022-11-08T04:25:56.744Z,8.71
2022-11-08T04:36:03.516Z,8.58
2022-11-08T04:46:08.419Z,8.62
2022-11-08T04:56:13.024Z,8.68
2022-11-08T05:06:20.302Z,8.50
2022-11-08T05:16:24.582Z,8.10
2022-11-08T05:26:26.773Z,7.96
2022-11-08T05:36:28.986Z,8.16
2022-11-08T05:46:31.019Z,8.18
2022-11-08T05:56:32.763Z,8.14
2022-11-08T06:06:33.948Z,8.23
2022-11-08T06:16:35.173Z,8.21
2022-11-08T06:26:36.340Z,7.99
2022-11-08T06:36:37.659Z,7.91
2022-11-08T06:46:39.035Z,7.82
2022-11-08T06:56:40.222Z,8.05
2022-11-08T07:06:41.465Z,8.45
2022-11-08T07:16:42.851Z,8.97
2022-11-08T07:26:44.316Z,9.85
2022-11-08T07:36:46.234Z,10.82
2022-11-08T07:46:47.508Z,11.20
2022-11-08T07:56:48.630Z,10.92
2022-11-08T08:06:49.805Z,10.54
2022-11-08T08:16:51.209Z,10.48
2022-11-08T08:26:52.792Z,10.60
2022-11-08T08:36:54.064Z,10.65
2022-11-08T08:46:55.295Z,10.65
2022-11-08T08:56:57.665Z,10.69
2022-11-08T09:06:58.949Z,10.95
2022-11-08T09:17:00.408Z,11.30
2022-11-08T09:27:04.532Z,11.47
2022-11-08T09:37:05.722Z,11.56
2022-11-08T09:47:24.729Z,11.67
2022-11-08T09:57:43.640Z,11.93
2022-11-08T10:08:06.683Z,12.23
2022-11-08T10:18:35.931Z,12.34
2022-11-08T10:28:42.080Z,12.35
2022-11-08T10:38:55.667Z,12.35
2022-11-08T10:49:20.772Z,12.51
2022-11-08T10:59:30.494Z,12.66
2022-11-08T11:09:31.643Z,12.75
2022-11-08T11:19:34.059Z,12.74
2022-11-08T11:29:37.957Z,12.68
2022-11-08T11:40:06.872Z,12.82
2022-11-08T11:50:34.143Z,12.99
2022-11-08T12:00:42.203Z,12.98
2022-11-08T12:11:04.444Z,12.94
2022-11-08T12:21:08.895Z,12.90
2022-11-08T12:31:28.134Z,13.03
2022-11-08T12:41:53.417Z,13.07
2022-11-08T12:52:39.612Z,12.92
2022-11-08T13:02:42.776Z,12.76
2022-11-08T13:13:08.013Z,12.82
2022-11-08T13:23:24.888Z,12.78
2022-11-08T13:33:30.859Z,12.60
2022-11-08T13:43:34.331Z,12.35
2022-11-08T13:53:43.123Z,12.24
2022-11-08T14:03:47.213Z,12.30
2022-11-08T14:13:54.124Z,12.26
2022-11-08T14:23:56.132Z,12.02
2022-11-08T14:33:59.108Z,11.78
2022-11-08T14:44:03.491Z,11.57
2022-11-08T14:54:17.666Z,11.35
2022-11-08T15:04:21.368Z,10.96
2022-11-08T15:14:26.537Z,10.49
2022-11-08T15:24:36.326Z,10.03
2022-11-08T15:34:40.733Z,9.63
2022-11-08T15:45:00.273Z,9.21
2022-11-08T15:55:01.544Z,8.92
2022-11-08T16:05:39.354Z,8.88
2022-11-08T16:15:40.752Z,8.82
2022-11-08T16:25:45.901Z,8.94
2022-11-08T16:35:48.363Z,8.75
2022-11-08T16:46:04.895Z,8.41
2022-11-08T16:56:07.814Z,7.99
2022-11-08T17:06:17.501Z,7.73
2022-11-08T17:16:19.508Z,7.61
2022-11-08T21:23:45.523Z,5.96
2022-11-08T21:33:47.686Z,6.52
2022-11-08T21:43:49.609Z,6.54
2022-11-08T21:53:56.424Z,6.45
2022-11-08T22:04:00.148Z,6.49
2022-11-08T22:14:02.042Z,6.42
2022-11-08T22:24:05.820Z,6.18
2022-11-08T22:34:09.510Z,6.13
2022-11-08T22:44:12.920Z,6.17
2022-11-08T22:54:15.419Z,6.13
2022-11-08T23:04:17.713Z,6.10
2022-11-08T23:14:39.307Z,5.90
2022-11-08T23:24:45.130Z,5.79
2022-11-08T23:34:47.122Z,5.81
2022-11-08T23:44:49.016Z,5.73
2022-11-08T23:54:50.916Z,5.49
